Time;durP1;ratioP1;P1;durP2;ratioP2;P2;SDS_P1;SDS_P2;PMS_P1;PMS_P2;Temp;Humidity;BMP_temperature;BMP_pressure;BME280_temperature;BME280_humidity;BME280_pressure;Samples;Min_cycle;Max_cycle;Signal;HPM_P1;HPM_P2
2023/04/27 00:01:12;;;;;;;3.22;1.10;;;19.50;39.00;;;;;;6119914;29;20114;-67
2023/04/27 00:04:15;;;;;;;4.75;1.50;;;19.50;39.00;;;;;;6120284;29;20042;-66
2023/04/27 00:07:17;;;;;;;5.38;1.30;;;19.40;39.20;;;;;;6122632;29;20166;-65
2023/04/27 00:10:18;;;;;;;2.65;1.10;;;19.30;39.50;;;;;;6121662;29;20118;-65
2023/04/27 00:13:19;;;;;;;2.08;1.02;;;19.30;39.80;;;;;;6122020;29;20020;-68
2023/04/27 00:16:20;;;;;;;2.83;1.00;;;19.20;40.10;;;;;;6144925;29;20129;-66
2023/04/27 00:19:21;;;;;;;1.73;0.95;;;19.10;40.20;;;;;;6143729;28;20038;-66
2023/04/27 00:22:22;;;;;;;2.63;1.20;;;19.10;40.40;;;;;;6144820;28;20023;-65
2023/04/27 00:25:23;;;;;;;0.98;0.90;;;19.00;40.40;;;;;;6143096;28;20043;-67
2023/04/27 00:28:24;;;;;;;1.65;1.02;;;18.90;40.20;;;;;;6140822;29;20441;-66
2023/04/27 00:31:25;;;;;;;1.50;1.05;;;18.90;40.10;;;;;;6121042;29;20038;-68
2023/04/27 00:34:26;;;;;;;1.65;1.00;;;19.00;40.10;;;;;;6102914;29;20027;-66
2023/04/27 00:37:27;;;;;;;2.85;1.00;;;19.00;39.90;;;;;;6120488;29;20135;-64
2023/04/27 00:40:28;;;;;;;2.08;1.05;;;19.00;40.00;;;;;;6119383;29;20509;-67
2023/04/27 00:43:30;;;;;;;1.85;1.10;;;18.90;40.00;;;;;;6120953;29;20473;-67
2023/04/27 00:46:32;;;;;;;4.07;1.08;;;18.90;40.10;;;;;;6119166;29;20053;-68
2023/04/27 00:49:33;;;;;;;0.95;0.90;;;18.90;40.10;;;;;;6118891;29;20032;-65
2023/04/27 00:52:35;;;;;;;2.05;1.30;;;18.90;40.10;;;;;;6131866;29;20031;-66
2023/04/27 00:55:36;;;;;;;2.85;1.20;;;18.80;40.20;;;;;;6144345;28;20033;-68
2023/04/27 00:58:37;;;;;;;3.05;1.40;;;18.80;40.40;;;;;;6142436;28;20127;-68
2023/04/27 01:01:38;;;;;;;2.22;1.05;;;18.80;40.60;;;;;;6143925;28;20030;-66
2023/04/27 01:04:39;;;;;;;3.30;1.52;;;18.70;40.80;;;;;;6142664;28;20054;-67
2023/04/27 01:07:41;;;;;;;2.50;1.30;;;18.70;41.20;;;;;;6142455;28;20043;-68
2023/04/27 01:10:42;;;;;;;2.45;1.15;;;18.60;41.50;;;;;;6116113;29;20032;-67
2023/04/27 01:13:45;;;;;;;2.35;1.27;;;18.50;41.70;;;;;;6118881;29;20027;-67
2023/04/27 01:16:46;;;;;;;3.42;1.25;;;18.40;41.90;;;;;;6119178;29;20035;-68
2023/04/27 01:19:48;;;;;;;2.67;1.50;;;18.40;42.00;;;;;;6120267;29;20118;-67
2023/04/27 01:22:52;;;;;;;1.38;1.10;;;18.30;42.10;;;;;;6098453;29;20028;-68
2023/04/27 01:25:53;;;;;;;4.00;0.90;;;18.40;42.20;;;;;;6091068;29;20063;-66
2023/04/27 01:28:54;;;;;;;5.97;1.27;;;18.30;42.00;;;;;;6119907;29;20464;-68
2023/04/27 01:31:55;;;;;;;1.60;1.10;;;18.30;42.00;;;;;;6121929;29;20034;-69
2023/04/27 01:34:57;;;;;;;2.38;1.45;;;18.30;42.00;;;;;;6123246;29;20055;-67
2023/04/27 01:38:00;;;;;;;2.47;1.20;;;18.30;42.00;;;;;;6122906;29;20501;-70
2023/04/27 01:41:07;;;;;;;0.90;0.88;;;18.30;41.90;;;;;;6124571;29;20038;-67
2023/04/27 01:44:08;;;;;;;5.40;1.07;;;18.20;41.90;;;;;;6123040;29;20570;-67
2023/04/27 01:47:09;;;;;;;2.67;1.13;;;18.20;41.80;;;;;;6124048;29;20034;-66
2023/04/27 01:50:10;;;;;;;4.25;1.10;;;18.20;41.70;;;;;;6109499;29;20036;-68
2023/04/27 01:53:13;;;;;;;2.42;1.13;;;18.20;41.70;;;;;;6116910;29;20027;-68
2023/04/27 01:56:14;;;;;;;3.63;1.33;;;18.10;41.70;;;;;;6122807;29;20035;-68
2023/04/27 01:59:15;;;;;;;1.23;0.93;;;18.10;41.80;;;;;;6122663;29;20119;-67
2023/04/27 02:02:16;;;;;;;2.10;0.90;;;18.10;42.30;;;;;;6124408;29;20054;-64
2023/04/27 02:05:17;;;;;;;3.60;0.90;;;18.00;42.70;;;;;;6122357;29;20047;-68
2023/04/27 02:08:19;;;;;;;2.63;1.48;;;18.00;43.00;;;;;;6105140;29;20036;-68
2023/04/27 02:11:21;;;;;;;3.22;1.33;;;18.00;43.50;;;;;;6098682;29;20402;-67
2023/04/27 02:14:24;;;;;;;4.45;1.73;;;17.90;43.80;;;;;;6083536;29;20035;-68
2023/04/27 02:17:25;;;;;;;4.15;1.52;;;17.90;43.90;;;;;;6098294;29;20450;-68
2023/04/27 02:20:29;;;;;;;4.72;1.17;;;17.80;44.30;;;;;;6098434;29;20112;-67
2023/04/27 02:23:30;;;;;;;4.05;1.70;;;17.80;44.60;;;;;;6105411;29;20039;-65
2023/04/27 02:26:31;;;;;;;3.42;1.67;;;17.70;44.80;;;;;;6106415;29;20023;-67
2023/04/27 02:29:32;;;;;;;3.45;1.50;;;17.70;45.00;;;;;;6122248;29;20070;-66
2023/04/27 02:32:34;;;;;;;5.88;1.70;;;17.60;45.80;;;;;;6106325;29;20027;-65
2023/04/27 02:35:35;;;;;;;2.47;1.65;;;17.50;45.40;;;;;;6122254;29;20024;-67
2023/04/27 02:38:36;;;;;;;5.82;1.70;;;17.50;45.70;;;;;;6123446;29;20050;-68
2023/04/27 02:41:37;;;;;;;1.92;1.17;;;17.50;45.90;;;;;;6122095;29;20072;-69
2023/04/27 02:44:37;;;;;;;4.82;1.40;;;17.40;46.00;;;;;;6120570;29;20453;-67
2023/04/27 02:47:38;;;;;;;8.95;1.42;;;17.40;46.10;;;;;;6121521;29;20095;-70
2023/04/27 02:50:41;;;;;;;2.40;1.17;;;17.30;46.20;;;;;;6123186;29;20031;-65
2023/04/27 02:53:42;;;;;;;3.13;1.45;;;17.20;46.30;;;;;;6143250;28;20118;-67
2023/04/27 02:56:43;;;;;;;4.10;1.80;;;17.20;46.40;;;;;;6145302;28;20039;-68
2023/04/27 02:59:44;;;;;;;4.45;1.27;;;17.20;46.60;;;;;;6144955;28;20492;-67
2023/04/27 03:02:44;;;;;;;2.15;1.10;;;17.10;46.60;;;;;;6138211;28;20027;-66
2023/04/27 03:05:46;;;;;;;3.50;1.20;;;17.10;46.80;;;;;;6122664;29;20392;-69
2023/04/27 03:08:46;;;;;;;1.58;1.10;;;17.00;46.60;;;;;;6122702;29;20063;-69
2023/04/27 03:11:47;;;;;;;4.10;1.73;;;17.00;46.60;;;;;;6122839;29;20103;-67
2023/04/27 03:14:48;;;;;;;3.45;1.27;;;17.00;46.60;;;;;;6122873;29;20666;-68
2023/04/27 03:17:49;;;;;;;4.40;1.50;;;16.90;46.60;;;;;;6122027;29;20039;-66
2023/04/27 03:20:50;;;;;;;2.95;1.35;;;16.90;46.70;;;;;;6105730;29;20032;-67
2023/04/27 03:23:52;;;;;;;1.77;1.10;;;16.80;47.00;;;;;;6122291;29;20040;-69
2023/04/27 03:26:53;;;;;;;5.72;1.55;;;16.80;47.30;;;;;;6120817;29;20103;-67
2023/04/27 03:29:56;;;;;;;5.10;1.33;;;16.70;47.60;;;;;;6120825;29;20544;-68
2023/04/27 03:32:57;;;;;;;10.07;4.00;;;16.70;47.70;;;;;;6119259;29;20031;-69
2023/04/27 03:35:59;;;;;;;15.50;7.35;;;16.60;47.90;;;;;;6122309;29;20748;-68
2023/04/27 03:39:00;;;;;;;23.83;9.82;;;16.60;48.00;;;;;;6122091;29;20078;-66
2023/04/27 03:42:02;;;;;;;22.13;8.20;;;16.60;48.10;;;;;;6122063;29;20457;-68
2023/04/27 03:45:04;;;;;;;22.40;8.38;;;16.50;48.20;;;;;;6120703;29;20028;-66
2023/04/27 03:48:05;;;;;;;27.48;10.60;;;16.50;48.30;;;;;;6120156;29;20167;-68
2023/04/27 03:51:07;;;;;;;27.17;11.93;;;16.40;48.40;;;;;;6120355;29;20453;-67
2023/04/27 03:54:08;;;;;;;37.83;12.15;;;16.40;48.50;;;;;;6120097;29;20027;-66
2023/04/27 03:57:10;;;;;;;30.92;9.48;;;16.40;48.60;;;;;;6120770;29;20358;-66
2023/04/27 04:00:11;;;;;;;28.65;9.90;;;16.30;48.70;;;;;;6120333;29;20028;-67
2023/04/27 04:03:15;;;;;;;15.73;6.28;;;16.30;48.90;;;;;;6120903;29;20035;-67
2023/04/27 04:06:17;;;;;;;12.82;4.60;;;16.20;48.90;;;;;;6120582;29;20122;-67
2023/04/27 04:09:19;;;;;;;11.63;3.80;;;16.30;49.00;;;;;;6120422;29;20500;-66
2023/04/27 04:12:19;;;;;;;9.50;3.13;;;16.20;49.00;;;;;;6119816;29;20023;-67
2023/04/27 04:15:20;;;;;;;4.47;2.63;;;16.20;49.10;;;;;;6121176;29;20032;-66
2023/04/27 04:18:23;;;;;;;12.02;2.60;;;16.10;49.10;;;;;;6119609;29;20036;-67
2023/04/27 04:21:24;;;;;;;6.93;3.03;;;16.10;49.00;;;;;;6119960;29;20136;-71
2023/04/27 04:24:25;;;;;;;15.18;2.85;;;16.10;49.50;;;;;;6119627;29;20047;-67
2023/04/27 04:27:26;;;;;;;3.35;2.08;;;16.10;48.80;;;;;;6120962;29;20024;-68
2023/04/27 04:30:27;;;;;;;7.07;2.55;;;16.10;48.90;;;;;;6118975;29;20477;-66
2023/04/27 04:33:28;;;;;;;3.15;1.77;;;16.10;48.90;;;;;;6118924;29;20477;-68
2023/04/27 04:36:30;;;;;;;4.47;2.22;;;16.10;49.00;;;;;;6118938;29;20035;-65
2023/04/27 04:39:32;;;;;;;3.42;1.60;;;16.00;49.10;;;;;;6103286;29;20046;-69
2023/04/27 04:42:37;;;;;;;2.60;1.25;;;16.00;49.20;;;;;;6119197;29;20066;-68
2023/04/27 04:45:38;;;;;;;2.60;1.42;;;16.00;49.30;;;;;;6119302;29;20032;-70
2023/04/27 04:48:39;;;;;;;2.97;1.73;;;15.90;49.40;;;;;;6118805;29;20083;-69
2023/04/27 04:51:44;;;;;;;10.25;1.30;;;15.80;49.60;;;;;;6124891;29;20133;-68
2023/04/27 04:54:46;;;;;;;5.68;1.30;;;15.70;49.70;;;;;;6139563;28;20099;-67
2023/04/27 04:57:47;;;;;;;4.68;1.35;;;15.70;49.80;;;;;;6118956;29;20376;-67
2023/04/27 05:00:48;;;;;;;3.13;1.20;;;15.70;49.80;;;;;;6103310;29;20066;-67
2023/04/27 05:03:49;;;;;;;3.50;1.45;;;15.70;49.90;;;;;;6103225;29;20078;-66
2023/04/27 05:06:49;;;;;;;2.60;1.50;;;15.60;49.90;;;;;;6121016;29;20036;-67
2023/04/27 05:09:51;;;;;;;5.00;1.73;;;15.60;50.00;;;;;;6107828;29;20438;-68
2023/04/27 05:12:51;;;;;;;9.23;1.90;;;15.50;50.10;;;;;;6125522;29;20115;-68
2023/04/27 05:15:52;;;;;;;3.08;1.40;;;15.50;50.30;;;;;;6125592;29;20028;-67
2023/04/27 05:18:53;;;;;;;6.82;1.60;;;15.50;50.30;;;;;;6125217;29;20127;-66
2023/04/27 05:21:54;;;;;;;3.90;1.63;;;15.50;50.30;;;;;;6125364;29;20054;-67
2023/04/27 05:24:56;;;;;;;4.28;1.70;;;15.50;50.20;;;;;;6125272;29;20030;-67
2023/04/27 05:27:57;;;;;;;3.72;1.42;;;15.60;50.30;;;;;;6124575;29;20038;-70
2023/04/27 05:30:57;;;;;;;3.45;1.58;;;15.60;50.30;;;;;;6126561;29;20361;-66
2023/04/27 05:33:58;;;;;;;5.60;1.90;;;15.60;50.30;;;;;;6126312;29;20035;-72
2023/04/27 05:37:00;;;;;;;3.42;1.67;;;15.60;50.20;;;;;;6127305;29;20103;-72
2023/04/27 05:40:01;;;;;;;6.97;2.50;;;15.70;50.00;;;;;;6127854;29;20042;-71
2023/04/27 05:43:04;;;;;;;5.00;1.92;;;15.70;50.00;;;;;;6124253;29;20055;-72
2023/04/27 05:46:05;;;;;;;4.10;1.92;;;15.80;50.00;;;;;;6126469;29;20036;-73
2023/04/27 05:49:06;;;;;;;2.92;1.50;;;15.80;50.00;;;;;;6123983;29;20677;-73
2023/04/27 05:52:06;;;;;;;3.83;1.90;;;15.80;50.00;;;;;;6107392;29;20028;-73
2023/04/27 05:55:07;;;;;;;4.28;1.92;;;15.90;50.10;;;;;;6125169;29;20027;-72
2023/04/27 05:58:08;;;;;;;10.18;1.90;;;16.00;50.00;;;;;;6122974;29;20074;-74
2023/04/27 06:01:10;;;;;;;5.35;2.22;;;16.00;49.90;;;;;;6123039;29;20042;-72
2023/04/27 06:04:11;;;;;;;17.90;3.30;;;16.10;50.00;;;;;;6125358;29;20043;-72
2023/04/27 06:07:13;;;;;;;9.50;3.85;;;16.10;49.80;;;;;;6122998;29;20035;-74
2023/04/27 06:10:15;;;;;;;10.20;3.13;;;16.10;49.50;;;;;;6123417;29;20028;-73
2023/04/27 06:13:17;;;;;;;5.82;2.53;;;16.10;49.30;;;;;;6122835;29;20045;-72
2023/04/27 06:16:17;;;;;;;8.27;3.08;;;16.10;49.20;;;;;;6123172;29;20032;-72
2023/04/27 06:19:18;;;;;;;7.03;2.72;;;16.20;49.20;;;;;;6124415;29;20086;-71
2023/04/27 06:22:20;;;;;;;4.85;2.25;;;16.20;49.00;;;;;;6124643;29;20039;-71
2023/04/27 06:25:21;;;;;;;5.50;2.30;;;16.30;49.00;;;;;;6124104;29;20032;-72
2023/04/27 06:28:22;;;;;;;10.73;2.65;;;16.40;49.00;;;;;;6124521;29;20106;-74
2023/04/27 06:31:25;;;;;;;6.15;2.58;;;16.40;48.80;;;;;;6124120;29;20473;-72
2023/04/27 06:34:26;;;;;;;7.20;2.80;;;16.50;48.60;;;;;;6123484;29;20027;-72
2023/04/27 06:37:26;;;;;;;8.93;3.00;;;16.60;48.20;;;;;;6123002;29;20030;-72
2023/04/27 06:40:28;;;;;;;8.38;3.30;;;16.60;48.10;;;;;;6122655;29;20051;-74
2023/04/27 06:43:29;;;;;;;8.50;2.95;;;16.70;47.90;;;;;;6123026;29;20027;-71
2023/04/27 06:46:30;;;;;;;12.65;3.53;;;16.80;47.70;;;;;;6106985;29;20023;-72
2023/04/27 06:49:31;;;;;;;5.78;2.70;;;16.90;47.60;;;;;;6144108;29;20314;-72
2023/04/27 06:52:32;;;;;;;8.18;3.28;;;17.00;47.50;;;;;;6134369;29;20031;-72
2023/04/27 06:55:33;;;;;;;8.30;3.05;;;17.10;47.40;;;;;;6122131;29;20103;-73
2023/04/27 06:58:35;;;;;;;11.02;2.03;;;17.20;47.30;;;;;;6122425;29;20361;-72
2023/04/27 07:01:36;;;;;;;5.50;2.45;;;17.30;47.10;;;;;;6106525;29;20123;-72
2023/04/27 07:04:37;;;;;;;8.82;2.17;;;17.50;47.00;;;;;;6122904;29;20493;-72
2023/04/27 07:07:38;;;;;;;9.00;2.08;;;17.60;46.80;;;;;;6120985;29;20110;-73
2023/04/27 07:10:40;;;;;;;9.43;2.00;;;17.60;46.70;;;;;;6123650;29;20035;-71
2023/04/27 07:13:41;;;;;;;10.52;2.50;;;17.70;46.70;;;;;;6121818;29;20056;-72
2023/04/27 07:16:43;;;;;;;6.30;1.60;;;17.80;46.80;;;;;;6121711;29;20031;-74
2023/04/27 07:19:44;;;;;;;6.05;1.85;;;18.00;46.70;;;;;;6122437;29;20031;-72
2023/04/27 07:22:48;;;;;;;5.38;1.35;;;18.20;46.20;;;;;;6121964;29;20039;-71
2023/04/27 07:25:49;;;;;;;6.38;1.80;;;18.40;45.90;;;;;;6121571;29;20079;-73
2023/04/27 07:28:50;;;;;;;6.43;1.30;;;18.60;45.60;;;;;;6121079;29;20046;-71
2023/04/27 07:31:51;;;;;;;4.05;1.30;;;18.80;45.10;;;;;;6121345;29;20027;-72
2023/04/27 07:34:54;;;;;;;4.82;1.30;;;18.90;44.80;;;;;;6121513;29;20357;-73
2023/04/27 07:37:55;;;;;;;4.13;1.30;;;18.90;44.40;;;;;;6105336;29;20086;-73
2023/04/27 07:41:04;;;;;;;4.82;1.70;;;19.00;44.20;;;;;;6121372;29;20027;-72
2023/04/27 07:44:05;;;;;;;2.75;1.40;;;19.10;43.90;;;;;;6122607;29;20027;-74
2023/04/27 07:47:06;;;;;;;2.83;1.30;;;19.10;43.70;;;;;;6122079;29;20186;-73
2023/04/27 07:50:08;;;;;;;25.13;2.10;;;19.20;43.70;;;;;;6122488;29;20096;-72
2023/04/27 07:53:08;;;;;;;8.90;1.33;;;19.30;43.50;;;;;;6139498;29;20066;-71
2023/04/27 07:56:10;;;;;;;14.05;1.60;;;19.40;43.10;;;;;;6144225;28;20027;-73
2023/04/27 07:59:10;;;;;;;7.60;1.42;;;19.50;42.90;;;;;;6135663;28;20690;-73
2023/04/27 08:02:12;;;;;;;3.08;1.45;;;19.70;42.50;;;;;;6120797;29;20132;-73
2023/04/27 08:05:13;;;;;;;1.48;1.02;;;19.80;42.20;;;;;;6121080;29;20107;-73
2023/04/27 08:08:14;;;;;;;3.58;1.38;;;19.90;41.60;;;;;;6122158;29;20102;-72
2023/04/27 08:11:15;;;;;;;6.32;1.67;;;20.00;41.30;;;;;;6120683;29;20433;-72
2023/04/27 08:14:16;;;;;;;2.03;1.25;;;20.10;40.80;;;;;;6122379;29;20078;-73
2023/04/27 08:17:18;;;;;;;2.10;1.05;;;20.20;40.20;;;;;;6120521;29;20103;-72
2023/04/27 08:20:19;;;;;;;2.65;1.08;;;20.20;39.80;;;;;;6120262;29;20032;-73
2023/04/27 08:23:20;;;;;;;2.40;1.15;;;20.30;39.90;;;;;;6120342;29;20051;-72
2023/04/27 08:26:21;;;;;;;2.25;1.10;;;20.40;39.90;;;;;;6121327;29;20051;-71
2023/04/27 08:29:22;;;;;;;1.45;0.95;;;20.60;39.50;;;;;;6121905;29;20036;-73
2023/04/27 08:32:23;;;;;;;2.20;1.05;;;20.70;39.20;;;;;;6120199;29;20031;-72
2023/04/27 08:35:24;;;;;;;3.80;1.25;;;20.90;38.90;;;;;;6123081;29;20049;-72
2023/04/27 08:38:25;;;;;;;1.58;1.02;;;21.10;38.40;;;;;;6122913;29;20460;-74
2023/04/27 08:41:26;;;;;;;9.43;2.35;;;21.20;37.90;;;;;;6137158;28;20062;-75
2023/04/27 08:44:28;;;;;;;3.20;1.70;;;21.30;37.00;;;;;;6145710;28;20023;-73
2023/04/27 08:47:30;;;;;;;2.10;1.02;;;21.30;36.60;;;;;;6144079;28;20118;-73
2023/04/27 08:50:31;;;;;;;1.67;1.10;;;21.40;36.80;;;;;;6146672;28;20102;-71
2023/04/27 08:53:32;;;;;;;4.78;1.30;;;21.50;36.80;;;;;;6145661;29;20391;-72
2023/04/27 08:56:33;;;;;;;6.03;2.75;;;21.60;36.50;;;;;;6129581;28;20020;-72
2023/04/27 08:59:35;;;;;;;6.60;1.67;;;21.60;36.50;;;;;;6121854;29;20035;-71
2023/04/27 09:02:36;;;;;;;3.63;1.00;;;21.80;36.30;;;;;;6120209;29;20374;-72
2023/04/27 09:05:46;;;;;;;3.95;1.38;;;21.90;36.20;;;;;;6121601;29;20042;-73
2023/04/27 09:08:48;;;;;;;1.65;0.90;;;22.00;35.60;;;;;;6119960;29;20036;-74
2023/04/27 09:11:50;;;;;;;3.40;1.02;;;22.10;35.30;;;;;;6121453;29;20035;-73
2023/04/27 09:14:58;;;;;;;4.40;0.90;;;22.20;35.00;;;;;;6121136;29;20147;-72
2023/04/27 09:17:59;;;;;;;2.83;0.98;;;22.30;35.00;;;;;;6121267;29;20024;-72
2023/04/27 09:21:00;;;;;;;2.50;1.13;;;22.40;35.00;;;;;;6121192;29;20110;-74
2023/04/27 09:24:12;;;;;;;2.25;1.00;;;22.50;34.60;;;;;;6119454;29;20499;-72
2023/04/27 09:27:23;;;;;;;2.47;0.85;;;22.60;34.50;;;;;;6121096;29;20058;-73
2023/04/27 09:30:28;;;;;;;3.75;1.58;;;22.80;34.00;;;;;;6121521;29;20130;-73
2023/04/27 09:33:31;;;;;;;12.15;1.83;;;22.80;33.50;;;;;;6122004;29;20023;-72
2023/04/27 09:36:32;;;;;;;4.32;1.63;;;22.80;32.80;;;;;;6120001;29;20031;-71
2023/04/27 09:39:34;;;;;;;4.68;1.25;;;22.90;32.80;;;;;;6119968;29;20027;-76
2023/04/27 09:42:35;;;;;;;2.85;1.58;;;23.00;32.70;;;;;;6121573;29;20092;-71
2023/04/27 09:45:37;;;;;;;5.82;0.90;;;23.10;32.70;;;;;;6120001;29;20544;-72
2023/04/27 09:48:39;;;;;;;1.63;0.70;;;23.20;32.60;;;;;;6121202;29;20084;-72
2023/04/27 09:51:40;;;;;;;2.28;0.95;;;23.40;32.30;;;;;;6121889;29;20016;-73
2023/04/27 09:54:42;;;;;;;2.10;1.10;;;23.70;32.00;;;;;;6126272;29;20039;-73
2023/04/27 09:58:05;;;;;;;10.68;1.20;;;23.90;31.60;;;;;;6125113;29;20031;-73
2023/04/27 10:01:37;;;;;;;4.75;1.00;;;24.10;31.50;;;;;;6126355;29;20608;-72
2023/04/27 10:05:12;;;;;;;1.08;0.85;;;24.40;30.90;;;;;;6126260;29;20051;-73
2023/04/27 10:08:14;;;;;;;6.07;2.40;;;24.70;30.20;;;;;;6124483;29;20405;-73
2023/04/27 10:11:18;;;;;;;22.70;5.78;;;24.90;30.00;;;;;;6126293;29;20299;-73
2023/04/27 10:14:23;;;;;;;4.35;1.10;;;25.10;29.70;;;;;;6124288;29;20553;-72
2023/04/27 10:17:32;;;;;;;61.05;17.60;;;25.30;29.80;;;;;;6125795;29;20122;-74
2023/04/27 10:20:37;;;;;;;4.97;1.42;;;25.40;29.30;;;;;;6125131;29;20171;-73
2023/04/27 10:23:51;;;;;;;38.50;10.30;;;25.60;29.10;;;;;;6126152;29;20109;-72
2023/04/27 10:26:52;;;;;;;15.32;4.32;;;25.80;29.00;;;;;;6124622;29;20035;-72
2023/04/27 10:29:53;;;;;;;4.80;2.13;;;26.00;28.60;;;;;;6125414;29;20386;-74
2023/04/27 10:32:56;;;;;;;8.20;2.95;;;26.20;28.40;;;;;;6125108;29;20477;-74
2023/04/27 10:35:59;;;;;;;13.93;3.00;;;26.30;28.10;;;;;;6125089;29;20107;-73
2023/04/27 10:39:00;;;;;;;11.20;4.88;;;26.50;27.90;;;;;;6124462;29;20028;-74
2023/04/27 10:42:01;;;;;;;5.82;1.15;;;26.70;27.60;;;;;;6122487;29;20338;-73
2023/04/27 10:45:02;;;;;;;3.25;0.80;;;26.80;27.20;;;;;;6122653;29;20035;-73
2023/04/27 10:48:03;;;;;;;2.88;1.02;;;27.00;27.10;;;;;;6123214;29;20327;-72
2023/04/27 10:51:05;;;;;;;9.57;2.83;;;27.10;26.90;;;;;;6124431;29;20488;-74
2023/04/27 10:54:07;;;;;;;2.53;0.57;;;27.10;26.80;;;;;;6148715;28;20483;-74
2023/04/27 10:57:09;;;;;;;1.60;0.60;;;27.30;26.70;;;;;;6147382;28;20035;-72
2023/04/27 11:00:13;;;;;;;15.18;4.57;;;27.30;26.50;;;;;;6146044;28;20455;-72
2023/04/27 11:03:22;;;;;;;0.47;0.43;;;27.40;26.30;;;;;;6146872;28;20090;-74
2023/04/27 11:06:24;;;;;;;0.95;0.77;;;27.40;26.10;;;;;;6145252;29;20023;-72
2023/04/27 11:09:26;;;;;;;7.43;2.30;;;27.50;25.90;;;;;;6129604;29;20408;-73
2023/04/27 11:12:27;;;;;;;18.35;5.78;;;27.60;25.70;;;;;;6145651;28;20440;-75
2023/04/27 11:15:28;;;;;;;1.38;0.80;;;27.80;25.60;;;;;;6147496;28;20114;-74
2023/04/27 11:18:31;;;;;;;6.75;1.98;;;28.00;25.50;;;;;;6145401;29;20036;-73
2023/04/27 11:21:32;;;;;;;1.60;1.00;;;28.10;25.40;;;;;;6145323;29;20621;-74
2023/04/27 11:24:33;;;;;;;3.20;0.90;;;28.10;25.20;;;;;;6146784;28;20428;-73
2023/04/27 11:27:40;;;;;;;2.03;0.85;;;28.20;25.30;;;;;;6147181;28;20027;-72
2023/04/27 11:30:40;;;;;;;3.53;1.73;;;28.30;25.20;;;;;;6129553;28;20035;-73
2023/04/27 11:33:51;;;;;;;4.95;2.17;;;28.60;25.10;;;;;;6124429;29;20071;-74
2023/04/27 11:36:59;;;;;;;1.83;1.13;;;28.70;24.90;;;;;;6123408;29;20103;-74
2023/04/27 11:40:00;;;;;;;2.03;1.08;;;28.70;24.70;;;;;;6121321;29;20050;-75
2023/04/27 11:43:04;;;;;;;2.38;1.10;;;28.60;24.80;;;;;;6123323;29;20031;-74
2023/04/27 11:46:08;;;;;;;20.98;5.97;;;28.40;25.00;;;;;;6122864;29;20027;-73
2023/04/27 11:49:09;;;;;;;15.52;4.93;;;28.30;25.10;;;;;;6122928;29;20122;-74
2023/04/27 11:52:12;;;;;;;4.03;1.50;;;28.30;25.20;;;;;;6132503;28;20169;-73
2023/04/27 11:55:14;;;;;;;3.13;1.20;;;28.30;25.40;;;;;;6146323;28;20457;-73
2023/04/27 11:58:15;;;;;;;4.28;1.20;;;28.20;25.60;;;;;;6145768;28;20146;-75
2023/04/27 12:01:17;;;;;;;3.50;1.05;;;28.20;25.70;;;;;;6147051;28;20030;-73
2023/04/27 12:04:18;;;;;;;13.30;2.28;;;28.40;25.90;;;;;;6147231;28;20094;-73
2023/04/27 12:07:19;;;;;;;7.53;2.17;;;28.50;25.90;;;;;;6146021;29;20039;-73
2023/04/27 12:10:20;;;;;;;4.97;1.63;;;28.50;25.90;;;;;;6145236;28;20070;-73
2023/04/27 12:13:21;;;;;;;6.63;1.65;;;28.50;26.00;;;;;;6146573;28;20066;-73
2023/04/27 12:16:22;;;;;;;5.28;2.08;;;28.40;25.80;;;;;;6145527;28;20050;-73
2023/04/27 12:19:24;;;;;;;4.30;1.00;;;28.30;25.90;;;;;;6145438;28;20031;-74
2023/04/27 12:22:25;;;;;;;8.48;2.58;;;28.20;25.90;;;;;;6145257;29;20093;-73
2023/04/27 12:25:26;;;;;;;6.05;1.00;;;28.30;25.90;;;;;;6136504;28;20051;-73
2023/04/27 12:28:27;;;;;;;2.47;1.15;;;28.40;25.80;;;;;;6121012;29;20067;-75
2023/04/27 12:31:30;;;;;;;10.00;2.60;;;28.90;25.50;;;;;;6119460;29;20170;-73
2023/04/27 12:34:31;;;;;;;1.98;0.82;;;29.20;25.00;;;;;;6120180;29;20020;-73
2023/04/27 12:37:33;;;;;;;1.73;1.05;;;29.40;24.70;;;;;;6120065;29;20040;-74
2023/04/27 12:40:34;;;;;;;2.28;1.13;;;29.70;24.50;;;;;;6119696;29;20032;-73
2023/04/27 12:43:36;;;;;;;7.20;2.30;;;29.70;24.40;;;;;;6121014;29;20153;-74
2023/04/27 12:46:41;;;;;;;3.10;1.40;;;29.80;24.20;;;;;;6119742;29;20147;-72
2023/04/27 12:49:42;;;;;;;3.63;1.73;;;30.10;24.00;;;;;;6118982;29;20027;-72
2023/04/27 12:52:43;;;;;;;2.22;1.00;;;30.30;23.50;;;;;;6119914;29;20062;-73
2023/04/27 12:55:45;;;;;;;9.05;1.50;;;30.70;23.10;;;;;;6121446;29;20027;-72
2023/04/27 12:58:46;;;;;;;3.88;1.20;;;31.20;22.60;;;;;;6103603;29;20098;-73
2023/04/27 13:01:48;;;;;;;2.83;1.20;;;31.70;22.60;;;;;;6119856;29;20083;-74
2023/04/27 13:04:49;;;;;;;4.10;1.50;;;31.90;22.40;;;;;;6121619;29;20034;-74
2023/04/27 13:07:52;;;;;;;2.83;1.27;;;32.30;22.10;;;;;;6119054;29;20449;-74
2023/04/27 13:10:52;;;;;;;4.97;1.38;;;33.20;21.50;;;;;;6121183;29;20035;-74
2023/04/27 13:13:56;;;;;;;6.28;1.48;;;33.80;20.60;;;;;;6120778;29;20132;-73
2023/04/27 13:16:57;;;;;;;3.90;0.65;;;34.40;20.30;;;;;;6119810;29;20095;-74
2023/04/27 13:19:58;;;;;;;3.72;0.60;;;34.90;19.70;;;;;;6119237;29;20099;-72
2023/04/27 13:22:59;;;;;;;4.80;0.70;;;35.50;19.40;;;;;;6121251;29;20110;-73
2023/04/27 13:26:01;;;;;;;3.78;0.70;;;35.90;18.90;;;;;;6121145;29;20401;-74
2023/04/27 13:29:03;;;;;;;2.13;0.57;;;35.90;18.70;;;;;;6124627;29;20335;-73
2023/04/27 13:32:04;;;;;;;4.07;0.93;;;35.70;18.70;;;;;;6124219;29;20024;-74
2023/04/27 13:35:06;;;;;;;6.18;1.27;;;35.30;18.70;;;;;;6125974;29;20071;-75
2023/04/27 13:38:07;;;;;;;6.72;0.80;;;35.10;18.90;;;;;;6125415;29;20038;-74
2023/04/27 13:41:08;;;;;;;4.95;1.17;;;34.90;18.80;;;;;;6125967;29;20047;-73
2023/04/27 13:44:09;;;;;;;3.95;0.70;;;34.70;18.80;;;;;;6124264;29;20034;-75
2023/04/27 13:47:11;;;;;;;1.45;0.50;;;34.70;19.00;;;;;;6125462;29;20333;-74
2023/04/27 13:50:12;;;;;;;2.50;1.08;;;34.60;18.90;;;;;;6125652;29;20027;-74
2023/04/27 13:53:18;;;;;;;0.50;0.50;;;34.70;19.00;;;;;;6123964;29;20438;-72
2023/04/27 13:56:19;;;;;;;0.55;0.52;;;34.80;18.90;;;;;;6124049;29;20059;-72
2023/04/27 13:59:20;;;;;;;3.08;1.23;;;34.90;18.80;;;;;;6125799;29;20384;-73
2023/04/27 14:02:24;;;;;;;2.10;0.80;;;34.70;18.80;;;;;;6124307;29;20047;-72
2023/04/27 14:05:25;;;;;;;4.43;0.70;;;34.40;18.70;;;;;;6125638;29;20023;-73
2023/04/27 14:08:26;;;;;;;3.05;1.08;;;34.20;18.90;;;;;;6124922;29;20036;-74
2023/04/27 14:11:35;;;;;;;0.95;0.65;;;34.30;19.00;;;;;;6123682;29;20020;-74
2023/04/27 14:14:38;;;;;;;2.65;0.55;;;34.30;18.90;;;;;;6123659;29;20067;-71
2023/04/27 14:22:08;;;;;;;2.88;0.57;;;33.70;18.90;;;;;;6050514;29;20144;-74
2023/04/27 14:25:09;;;;;;;0.98;0.50;;;33.50;18.90;;;;;;6035680;29;20049;-73
2023/04/27 14:28:11;;;;;;;1.48;0.80;;;33.00;19.40;;;;;;6051667;29;20063;-74
2023/04/27 14:31:13;;;;;;;1.40;0.77;;;32.50;19.80;;;;;;6037886;29;20041;-73
2023/04/27 14:34:13;;;;;;;5.75;0.65;;;32.10;20.10;;;;;;6038277;29;20040;-73
2023/04/27 14:37:14;;;;;;;1.88;1.10;;;31.90;20.30;;;;;;6051932;29;20045;-73
2023/04/27 14:40:15;;;;;;;1.45;0.77;;;31.80;20.50;;;;;;6033627;29;20045;-74
2023/04/27 14:43:16;;;;;;;1.50;0.63;;;31.60;20.60;;;;;;6050856;29;20147;-74
2023/04/27 14:46:17;;;;;;;1.67;1.08;;;31.30;20.90;;;;;;6034909;29;20821;-73
2023/04/27 14:49:19;;;;;;;7.35;0.70;;;31.00;21.10;;;;;;6035347;29;20039;-71
2023/04/27 14:52:21;;;;;;;3.90;0.77;;;30.80;21.30;;;;;;6051114;29;20037;-72
2023/04/27 14:55:23;;;;;;;1.27;0.60;;;30.70;21.50;;;;;;6051223;29;20455;-74
2023/04/27 14:58:24;;;;;;;3.50;0.70;;;30.60;21.60;;;;;;6063610;29;20040;-73
2023/04/27 15:01:26;;;;;;;4.90;0.93;;;30.40;21.80;;;;;;6083389;29;20175;-73
2023/04/27 15:04:27;;;;;;;3.53;0.80;;;30.30;22.10;;;;;;6099677;29;20519;-73
2023/04/27 15:07:28;;;;;;;2.60;1.40;;;30.10;22.30;;;;;;6084084;29;20036;-74
2023/04/27 15:10:28;;;;;;;3.15;0.98;;;30.00;22.60;;;;;;6102052;29;20068;-74
2023/04/27 15:13:30;;;;;;;1.17;0.55;;;29.90;22.80;;;;;;6103677;29;20032;-74
2023/04/27 15:16:31;;;;;;;7.65;1.17;;;29.80;22.90;;;;;;6125347;29;20099;-73
2023/04/27 15:19:32;;;;;;;3.33;1.05;;;29.60;23.20;;;;;;6123631;29;20473;-73
2023/04/27 15:22:33;;;;;;;3.38;0.90;;;29.60;23.40;;;;;;6123261;29;20118;-75
2023/04/27 15:25:34;;;;;;;3.42;0.90;;;29.50;23.60;;;;;;6123643;29;20126;-73
2023/04/27 15:28:36;;;;;;;0.73;0.57;;;29.40;23.70;;;;;;6123184;29;20032;-73
2023/04/27 15:31:37;;;;;;;2.17;0.90;;;29.40;23.70;;;;;;6105891;29;20803;-74
2023/04/27 15:34:41;;;;;;;3.13;0.70;;;29.50;23.70;;;;;;6121782;29;20031;-75
2023/04/27 15:37:43;;;;;;;1.38;0.80;;;29.60;23.60;;;;;;6121268;29;20092;-74
2023/04/27 15:40:44;;;;;;;1.70;0.80;;;30.20;23.30;;;;;;6122960;29;20035;-73
2023/04/27 15:43:45;;;;;;;1.55;0.50;;;31.00;22.60;;;;;;6122901;29;20027;-74
2023/04/27 15:46:46;;;;;;;3.10;1.13;;;31.80;22.10;;;;;;6121330;29;20032;-75
2023/04/27 15:49:47;;;;;;;3.45;0.73;;;32.30;21.70;;;;;;6121063;29;20536;-75